Time;durP1;ratioP1;P1;durP2;ratioP2;P2;SDS_P1;SDS_P2;PMS_P1;PMS_P2;Temp;Humidity;BMP_temperature;BMP_pressure;BME280_temperature;BME280_humidity;BME280_pressure;Samples;Min_cycle;Max_cycle;Signal;HPM_P1;HPM_P2
2021/05/18 00:01:15;;;;;;;3.35;2.63;;;11.20;99.90;;;;;;5058871;28;20234;-62
2021/05/18 00:03:42;;;;;;;8.68;2.95;;;11.10;99.90;;;;;;5059012;28;20235;-63
2021/05/18 00:06:09;;;;;;;4.43;2.83;;;11.10;99.90;;;;;;5058850;28;20207;-61
2021/05/18 00:11:43;;;;;;;3.70;2.65;;;11.10;99.90;;;;;;5058801;28;20207;-63
2021/05/18 00:14:12;;;;;;;3.95;2.65;;;11.00;99.90;;;;;;5053580;28;20529;-63
2021/05/18 00:16:39;;;;;;;5.38;2.78;;;11.00;99.90;;;;;;5045928;28;20207;-62
2021/05/18 00:19:07;;;;;;;2.92;2.72;;;10.90;99.90;;;;;;5058602;28;20237;-62
2021/05/18 00:21:35;;;;;;;4.00;2.47;;;10.90;99.90;;;;;;5044387;28;20203;-62
2021/05/18 00:24:02;;;;;;;3.72;2.97;;;10.90;99.90;;;;;;5048079;28;20211;-63
2021/05/18 00:26:29;;;;;;;3.80;2.88;;;11.00;99.90;;;;;;5042128;28;20248;-62
2021/05/18 00:28:56;;;;;;;1.95;1.73;;;10.90;99.90;;;;;;5058439;28;20405;-64
2021/05/18 00:31:23;;;;;;;2.90;2.60;;;11.00;99.90;;;;;;5044398;28;20420;-63
2021/05/18 00:33:50;;;;;;;2.67;2.47;;;11.00;99.90;;;;;;5051407;28;20207;-63
2021/05/18 00:36:17;;;;;;;5.68;3.50;;;11.10;99.90;;;;;;5053401;28;20221;-64
2021/05/18 00:38:45;;;;;;;2.35;1.92;;;11.10;99.90;;;;;;5057355;28;20242;-65
2021/05/18 00:41:12;;;;;;;1.98;1.73;;;11.10;99.90;;;;;;5090771;28;20575;-64
2021/05/18 00:43:40;;;;;;;3.85;1.88;;;11.10;99.90;;;;;;5057126;28;20252;-65
2021/05/18 00:46:08;;;;;;;2.63;2.08;;;11.20;99.90;;;;;;5057770;28;20498;-65
2021/05/18 00:48:35;;;;;;;3.80;2.08;;;11.20;99.90;;;;;;5058317;28;20404;-64
2021/05/18 00:51:08;;;;;;;3.65;1.80;;;11.20;99.90;;;;;;5052316;28;20236;-66
2021/05/18 00:53:38;;;;;;;1.40;1.30;;;11.30;99.90;;;;;;5050986;28;20210;-66
2021/05/18 00:56:21;;;;;;;1.73;1.50;;;11.40;99.90;;;;;;5058195;28;20218;-64
2021/05/18 00:58:49;;;;;;;1.92;1.70;;;11.40;99.90;;;;;;5051659;28;20223;-65
2021/05/18 01:01:20;;;;;;;2.42;2.22;;;11.40;99.90;;;;;;5049437;28;20217;-65
2021/05/18 01:03:50;;;;;;;3.05;1.52;;;11.40;99.90;;;;;;5058019;28;20207;-65
2021/05/18 01:06:21;;;;;;;1.50;1.40;;;11.40;99.90;;;;;;5056859;28;20210;-65
2021/05/18 01:08:55;;;;;;;1.98;1.77;;;11.40;99.90;;;;;;5052469;28;20424;-65
2021/05/18 01:11:25;;;;;;;1.40;1.30;;;11.40;99.90;;;;;;5050275;28;20208;-65
2021/05/18 01:14:03;;;;;;;1.63;1.50;;;11.40;99.90;;;;;;5057314;28;20402;-65
2021/05/18 01:16:34;;;;;;;6.90;1.52;;;11.40;99.90;;;;;;5058085;28;20206;-65
2021/05/18 01:19:02;;;;;;;1.55;1.20;;;11.30;99.90;;;;;;5057205;28;20238;-64
2021/05/18 01:21:30;;;;;;;2.65;1.10;;;11.30;99.90;;;;;;5058331;28;20226;-65
2021/05/18 01:23:58;;;;;;;2.08;1.30;;;11.30;99.90;;;;;;5057013;28;20243;-65
2021/05/18 01:26:27;;;;;;;2.58;1.48;;;11.30;99.90;;;;;;5057824;28;20240;-64
2021/05/18 01:28:55;;;;;;;1.13;1.02;;;11.30;99.90;;;;;;5056985;28;20221;-65
2021/05/18 01:31:24;;;;;;;1.55;1.45;;;11.30;99.90;;;;;;5057463;28;20210;-64
2021/05/18 01:33:53;;;;;;;1.80;1.40;;;11.30;99.90;;;;;;5057694;28;20225;-65
2021/05/18 01:36:22;;;;;;;1.60;1.50;;;11.20;99.90;;;;;;5056803;28;20787;-64
2021/05/18 01:44:09;;;;;;;5.45;1.88;;;11.20;99.90;;;;;;5042787;28;20269;-65
2021/05/18 01:46:36;;;;;;;2.55;2.05;;;11.20;99.90;;;;;;5048564;28;20509;-64
2021/05/18 01:49:06;;;;;;;1.40;1.30;;;11.20;99.90;;;;;;5054460;28;20497;-64
2021/05/18 01:51:51;;;;;;;1.77;1.27;;;11.20;99.90;;;;;;5061791;28;20230;-65
2021/05/18 01:54:23;;;;;;;2.00;1.60;;;11.20;99.90;;;;;;5061178;28;20222;-65
2021/05/18 01:57:05;;;;;;;2.08;1.35;;;11.20;99.90;;;;;;5061260;28;20547;-64
2021/05/18 01:59:33;;;;;;;0.98;0.98;;;11.20;99.90;;;;;;5049643;28;20218;-63
2021/05/18 02:02:03;;;;;;;1.60;1.50;;;11.20;99.90;;;;;;5046131;28;20208;-65
2021/05/18 02:04:40;;;;;;;1.30;1.20;;;11.30;99.90;;;;;;5047590;28;20217;-66
2021/05/18 02:07:14;;;;;;;1.27;1.25;;;11.30;99.90;;;;;;5061174;28;20241;-65
2021/05/18 02:09:42;;;;;;;3.70;1.95;;;11.30;99.90;;;;;;5061633;28;20217;-66
2021/05/18 02:12:10;;;;;;;2.28;1.50;;;11.40;99.90;;;;;;5048573;28;20285;-66
2021/05/18 02:14:39;;;;;;;1.65;1.55;;;11.40;99.90;;;;;;5045410;28;20214;-65
2021/05/18 02:25:11;;;;;;;1.60;1.45;;;11.50;99.90;;;;;;5041189;28;20516;-65
2021/05/18 02:27:38;;;;;;;1.30;1.20;;;11.60;99.90;;;;;;5054057;28;20549;-66
2021/05/18 02:30:07;;;;;;;1.60;1.50;;;11.50;99.90;;;;;;5061407;28;20529;-64
2021/05/18 02:32:35;;;;;;;1.10;1.08;;;11.50;99.90;;;;;;5060146;28;20436;-64
2021/05/18 02:35:05;;;;;;;1.55;1.45;;;11.50;99.90;;;;;;5060017;28;20214;-64
2021/05/18 02:37:32;;;;;;;1.10;1.00;;;11.50;99.90;;;;;;5060715;28;20210;-64
2021/05/18 02:39:59;;;;;;;1.58;1.20;;;11.50;99.90;;;;;;5059191;28;20273;-63
2021/05/18 02:42:27;;;;;;;1.65;1.55;;;11.50;99.90;;;;;;5060470;28;20416;-63
2021/05/18 02:45:03;;;;;;;1.42;1.30;;;11.50;99.90;;;;;;5060331;28;20206;-64
2021/05/18 02:50:15;;;;;;;2.92;1.05;;;11.50;99.90;;;;;;5059064;28;20373;-63
2021/05/18 02:52:43;;;;;;;2.25;1.42;;;11.40;99.90;;;;;;5060502;28;20226;-64
2021/05/18 02:55:17;;;;;;;1.83;1.42;;;11.40;99.90;;;;;;5058839;28;20207;-64
2021/05/18 02:57:46;;;;;;;2.33;1.70;;;11.40;99.90;;;;;;5060550;28;20214;-64
2021/05/18 03:00:24;;;;;;;2.17;1.63;;;11.40;99.90;;;;;;5060783;28;20230;-64
2021/05/18 03:02:52;;;;;;;2.15;1.90;;;11.50;99.90;;;;;;5051129;28;20207;-65
2021/05/18 03:05:20;;;;;;;2.40;1.30;;;11.40;99.90;;;;;;5059921;28;20256;-65
2021/05/18 03:07:47;;;;;;;2.50;1.90;;;11.40;99.90;;;;;;5054592;28;20478;-64
2021/05/18 03:10:15;;;;;;;2.88;1.70;;;11.30;99.90;;;;;;5041206;28;20212;-65
2021/05/18 03:12:42;;;;;;;1.42;1.33;;;11.30;99.90;;;;;;5057347;28;20207;-64
2021/05/18 03:15:10;;;;;;;1.48;1.38;;;11.30;99.90;;;;;;5060023;28;20210;-64
2021/05/18 03:17:37;;;;;;;1.45;1.38;;;11.30;99.90;;;;;;5043728;28;20578;-64
2021/05/18 03:20:07;;;;;;;3.13;1.65;;;11.30;99.90;;;;;;5040753;28;20270;-63
2021/05/18 03:22:35;;;;;;;4.40;2.00;;;11.30;99.90;;;;;;5059180;28;20211;-63
2021/05/18 03:25:04;;;;;;;3.20;1.80;;;11.40;99.90;;;;;;5060573;28;20206;-64
2021/05/18 03:27:31;;;;;;;2.60;1.58;;;11.40;99.90;;;;;;5053277;28;20218;-64
2021/05/18 03:30:01;;;;;;;3.30;1.95;;;11.30;99.90;;;;;;5059565;28;20230;-64
2021/05/18 03:35:13;;;;;;;2.30;2.10;;;11.20;99.90;;;;;;5059421;28;20214;-63
2021/05/18 03:37:51;;;;;;;2.80;2.30;;;11.20;99.90;;;;;;5058111;28;20327;-64
2021/05/18 03:40:18;;;;;;;2.80;2.60;;;11.20;99.90;;;;;;5053327;28;20452;-63
2021/05/18 03:43:37;;;;;;;2.05;1.85;;;11.20;99.90;;;;;;5057864;28;20206;-64
2021/05/18 03:45:39;;;;;;;3.08;2.75;;;11.20;99.90;;;;;;5058187;28;20214;-63
2021/05/18 04:21:03;;;;;;;2.40;1.50;;;11.90;99.90;;;;;;5042406;28;20234;-63
2021/05/18 04:40:54;;;;;;;2.42;1.50;;;12.20;99.90;;;;;;5052323;28;20306;-65
2021/05/18 04:59:06;;;;;;;1.63;1.50;;;12.40;99.90;;;;;;5045415;28;20200;-64
2021/05/18 05:06:59;;;;;;;1.35;1.25;;;12.40;99.90;;;;;;5055191;28;20207;-64
2021/05/18 05:09:32;;;;;;;1.42;1.33;;;12.60;99.90;;;;;;5049713;28;20234;-65
2021/05/18 05:14:45;;;;;;;3.30;1.30;;;12.50;99.90;;;;;;5057074;28;20203;-64
2021/05/18 05:17:12;;;;;;;2.85;1.90;;;12.50;99.90;;;;;;5044976;28;20754;-65
2021/05/18 05:19:42;;;;;;;1.40;1.30;;;12.50;99.90;;;;;;5042389;28;20259;-64
2021/05/18 05:22:10;;;;;;;2.03;1.70;;;12.50;99.90;;;;;;5057317;28;20360;-65
2021/05/18 05:24:37;;;;;;;3.10;1.45;;;12.50;99.90;;;;;;5057070;28;20204;-64
2021/05/18 05:27:05;;;;;;;2.22;1.50;;;12.60;99.90;;;;;;5056374;28;20371;-65
2021/05/18 05:29:35;;;;;;;2.13;1.48;;;12.70;99.90;;;;;;5056207;28;20271;-64
2021/05/18 05:32:03;;;;;;;2.22;1.90;;;12.80;99.90;;;;;;5056473;28;20255;-65
2021/05/18 05:34:30;;;;;;;2.65;2.42;;;12.90;99.90;;;;;;5054616;28;20252;-64
2021/05/18 05:36:57;;;;;;;6.25;2.38;;;13.10;99.90;;;;;;5055314;28;20412;-64
2021/05/18 05:39:24;;;;;;;5.10;2.00;;;13.30;99.90;;;;;;5054972;28;20288;-64
2021/05/18 05:41:53;;;;;;;2.17;1.95;;;13.50;99.90;;;;;;5043348;28;20306;-68
2021/05/18 05:44:23;;;;;;;2.72;2.45;;;13.80;99.90;;;;;;5050273;28;20230;-65
2021/05/18 05:46:51;;;;;;;5.90;1.67;;;14.00;99.90;;;;;;5056627;28;20344;-63
2021/05/18 05:49:18;;;;;;;2.70;1.85;;;14.10;99.90;;;;;;5054355;28;20207;-64
2021/05/18 05:51:46;;;;;;;3.17;1.65;;;14.20;99.90;;;;;;5053991;28;20261;-65
2021/05/18 05:54:13;;;;;;;2.17;1.98;;;14.30;99.90;;;;;;5051868;28;20747;-64
2021/05/18 05:56:40;;;;;;;2.80;2.47;;;14.20;99.90;;;;;;5047684;28;20207;-64
2021/05/18 05:59:08;;;;;;;3.15;2.38;;;14.20;99.90;;;;;;5051676;28;20719;-66
2021/05/18 06:01:36;;;;;;;3.55;2.75;;;14.20;99.90;;;;;;5056322;28;20502;-64
2021/05/18 06:04:04;;;;;;;2.20;2.00;;;14.30;99.90;;;;;;5057115;28;20284;-65
2021/05/18 06:06:32;;;;;;;3.92;2.20;;;14.20;99.90;;;;;;5054837;28;20209;-64
2021/05/18 06:09:01;;;;;;;4.30;2.35;;;14.20;99.90;;;;;;5054203;28;20448;-65
2021/05/18 06:11:54;;;;;;;4.15;2.22;;;14.10;99.90;;;;;;5045999;28;20317;-65
2021/05/18 06:49:28;;;;;;;2.43;2.27;;;18.80;94.40;;;;;;5059171;28;20623;-65
2021/05/18 06:51:56;;;;;;;2.30;2.20;;;18.70;94.40;;;;;;5059801;28;20486;-64
2021/05/18 06:54:25;;;;;;;2.70;2.50;;;18.80;93.80;;;;;;5057695;28;20415;-64
2021/05/18 06:56:55;;;;;;;2.63;2.53;;;19.40;93.10;;;;;;5058425;28;20478;-65
2021/05/18 07:01:52;;;;;;;2.90;2.70;;;20.40;91.20;;;;;;5059812;28;20860;-66
2021/05/18 07:04:20;;;;;;;3.20;3.00;;;20.20;91.70;;;;;;5059340;28;20445;-66
2021/05/18 07:07:08;;;;;;;3.23;3.03;;;20.10;91.50;;;;;;5059664;28;20441;-65
2021/05/18 07:09:35;;;;;;;3.20;3.00;;;20.40;91.70;;;;;;5053065;28;20465;-64
2021/05/18 07:12:04;;;;;;;6.33;4.00;;;20.20;91.30;;;;;;5051533;28;20422;-65
2021/05/18 07:14:31;;;;;;;10.23;3.47;;;20.00;91.40;;;;;;5055236;28;20446;-65
2021/05/18 07:16:58;;;;;;;6.30;3.60;;;19.30;92.70;;;;;;5051240;28;20447;-67
2021/05/18 07:19:26;;;;;;;2.70;2.50;;;18.50;93.70;;;;;;5059215;28;20416;-66
2021/05/18 07:21:53;;;;;;;2.80;2.60;;;18.30;94.60;;;;;;5058773;28;20512;-65
2021/05/18 07:24:28;;;;;;;6.20;2.83;;;18.30;94.50;;;;;;5059424;28;20448;-64
2021/05/18 07:26:57;;;;;;;3.47;2.33;;;18.40;94.90;;;;;;5057450;28;20414;-65
2021/05/18 07:29:24;;;;;;;3.70;2.90;;;18.60;94.50;;;;;;5058509;28;20507;-64
2021/05/18 07:31:51;;;;;;;3.20;2.80;;;18.50;94.50;;;;;;5059123;28;20422;-66
2021/05/18 07:34:19;;;;;;;5.80;3.10;;;18.90;93.50;;;;;;5044674;28;20426;-68
2021/05/18 07:36:46;;;;;;;3.33;3.03;;;19.60;93.10;;;;;;5051730;28;20794;-65
2021/05/18 07:39:13;;;;;;;3.77;3.43;;;20.20;91.50;;;;;;5050798;28;20451;-64
2021/05/18 07:41:41;;;;;;;3.63;3.43;;;20.90;90.80;;;;;;5051807;28;20490;-65
2021/05/18 07:44:08;;;;;;;11.53;4.30;;;20.80;89.80;;;;;;5085908;28;20767;-65
2021/05/18 07:46:40;;;;;;;4.40;4.20;;;20.90;89.90;;;;;;5048814;28;20801;-65
2021/05/18 08:05:34;;;;;;;4.37;4.17;;;21.40;86.70;;;;;;5055449;28;20755;-66
2021/05/18 08:08:02;;;;;;;4.60;4.30;;;21.30;86.30;;;;;;5045883;28;20642;-66
2021/05/18 08:12:59;;;;;;;8.13;4.33;;;20.40;89.90;;;;;;5058398;28;20443;-65
2021/05/18 10:34:38;;;;;;;3.80;3.60;;;19.50;91.10;;;;;;5056138;28;20436;-67
2021/05/18 10:37:26;;;;;;;3.87;3.60;;;19.20;90.90;;;;;;5050145;28;20768;-68
2021/05/18 10:40:22;;;;;;;3.70;3.50;;;19.10;88.90;;;;;;5055489;28;20476;-67
2021/05/18 10:43:19;;;;;;;4.17;3.90;;;19.40;87.30;;;;;;5050273;28;20466;-67
2021/05/18 10:45:56;;;;;;;4.30;4.20;;;19.60;84.20;;;;;;5054078;28;20415;-68
2021/05/18 10:48:35;;;;;;;4.30;4.10;;;19.70;82.10;;;;;;5057118;28;20483;-66
2021/05/18 10:51:31;;;;;;;4.53;4.37;;;19.70;82.30;;;;;;5054101;28;20774;-67
2021/05/18 10:54:18;;;;;;;4.67;4.37;;;19.70;84.60;;;;;;5047381;28;20679;-66
2021/05/18 10:56:59;;;;;;;4.57;4.17;;;19.50;86.50;;;;;;5059604;28;20487;-66
2021/05/18 10:59:27;;;;;;;4.60;4.20;;;19.70;88.80;;;;;;5049597;28;20459;-64
2021/05/18 11:02:19;;;;;;;3.30;3.20;;;19.60;90.40;;;;;;5060636;28;20529;-65
2021/05/18 11:04:55;;;;;;;3.67;3.47;;;19.20;90.90;;;;;;5081060;28;20414;-70
2021/05/18 11:07:35;;;;;;;5.23;3.80;;;18.90;90.70;;;;;;5056883;28;20411;-66
2021/05/18 11:10:06;;;;;;;3.40;3.30;;;18.70;91.40;;;;;;5050153;28;20443;-64
2021/05/18 11:12:35;;;;;;;3.47;3.27;;;19.10;91.60;;;;;;5057681;28;20491;-66
2021/05/18 11:15:08;;;;;;;3.33;3.20;;;19.50;91.30;;;;;;5060586;28;20415;-67
2021/05/18 11:17:38;;;;;;;3.40;3.30;;;20.00;90.30;;;;;;5089644;28;20423;-67
2021/05/18 11:23:32;;;;;;;4.33;4.13;;;20.30;85.00;;;;;;5048320;28;20419;-67
2021/05/18 11:26:08;;;;;;;4.00;3.90;;;20.70;80.00;;;;;;5047186;28;20454;-68
2021/05/18 11:28:45;;;;;;;4.40;4.30;;;21.20;79.40;;;;;;5050931;28;20465;-67
2021/05/18 11:31:20;;;;;;;4.17;4.07;;;21.00;80.90;;;;;;5048432;28;20446;-67
2021/05/18 11:33:51;;;;;;;4.30;4.20;;;20.90;83.00;;;;;;5057553;28;20424;-65
2021/05/18 11:36:29;;;;;;;5.33;4.93;;;20.30;84.80;;;;;;5053446;28;20415;-65
2021/05/18 11:39:09;;;;;;;4.00;3.90;;;19.80;86.80;;;;;;5056104;28;20478;-66
2021/05/18 11:41:39;;;;;;;4.20;4.00;;;19.50;87.60;;;;;;5056361;28;20479;-66
2021/05/18 11:44:10;;;;;;;5.33;4.93;;;19.70;85.00;;;;;;5056586;28;20423;-66
2021/05/18 11:46:49;;;;;;;4.23;4.10;;;19.90;84.70;;;;;;5055924;28;20451;-67
2021/05/18 11:49:21;;;;;;;4.67;4.47;;;20.10;84.70;;;;;;5052504;28;20440;-66
2021/05/18 11:51:51;;;;;;;4.20;4.00;;;20.00;87.60;;;;;;5048310;28;20445;-66
2021/05/18 11:54:37;;;;;;;3.97;3.77;;;19.80;88.00;;;;;;5057092;28;20411;-68
2021/05/18 11:57:09;;;;;;;4.13;3.77;;;19.60;89.30;;;;;;5058737;28;20407;-68
2021/05/18 11:59:36;;;;;;;3.90;3.80;;;19.80;88.50;;;;;;5058179;28;20429;-67
2021/05/18 12:02:06;;;;;;;4.17;3.97;;;19.90;88.00;;;;;;5058595;28;20556;-66
2021/05/18 12:04:40;;;;;;;4.57;4.33;;;20.20;88.60;;;;;;5052603;28;20420;-66
2021/05/18 12:07:12;;;;;;;4.37;4.07;;;20.10;88.70;;;;;;5055378;28;20554;-65
2021/05/18 12:09:43;;;;;;;3.87;3.67;;;20.10;88.80;;;;;;5045554;28;20486;-65
2021/05/18 12:12:15;;;;;;;6.30;4.07;;;20.30;88.60;;;;;;5055694;28;20491;-67
2021/05/18 12:14:47;;;;;;;4.33;4.00;;;20.50;86.40;;;;;;5044756;28;20412;-67
2021/05/18 12:17:27;;;;;;;4.20;4.00;;;20.60;86.10;;;;;;5058914;28;20451;-69
2021/05/18 12:19:55;;;;;;;4.10;3.90;;;20.90;84.70;;;;;;5058706;28;20460;-67
2021/05/18 12:22:22;;;;;;;5.83;5.30;;;20.80;84.90;;;;;;5050553;28;20470;-67
2021/05/18 12:24:55;;;;;;;3.60;3.50;;;21.10;86.10;;;;;;5080807;28;20419;-67
2021/05/18 12:27:23;;;;;;;3.77;3.67;;;21.10;84.90;;;;;;5057393;28;20419;-67
2021/05/18 12:29:53;;;;;;;3.90;3.70;;;20.70;84.20;;;;;;5050918;28;20431;-67
2021/05/18 12:32:34;;;;;;;3.83;3.73;;;20.30;82.10;;;;;;5057527;28;20419;-65
2021/05/18 12:35:05;;;;;;;3.93;3.70;;;20.20;83.40;;;;;;5078048;28;20470;-66
2021/05/18 12:37:39;;;;;;;5.40;4.90;;;20.30;83.20;;;;;;5056616;28;20403;-66
2021/05/18 12:40:14;;;;;;;4.23;3.73;;;20.90;82.40;;;;;;5058584;28;20466;-67
2021/05/18 12:42:46;;;;;;;3.90;3.80;;;21.00;82.80;;;;;;5057263;28;20481;-68
2021/05/18 12:45:20;;;;;;;4.50;4.20;;;21.00;84.50;;;;;;5057712;28;20446;-67
2021/05/18 12:47:51;;;;;;;4.33;4.10;;;20.90;86.20;;;;;;5057890;28;20736;-67
2021/05/18 12:50:20;;;;;;;4.10;3.90;;;20.60;87.00;;;;;;5057255;28;20466;-65
2021/05/18 12:52:49;;;;;;;4.43;4.23;;;20.60;86.30;;;;;;5057124;28;20420;-67
2021/05/18 12:55:23;;;;;;;3.70;3.60;;;20.40;83.60;;;;;;5057178;28;20415;-65
2021/05/18 12:57:53;;;;;;;3.80;3.70;;;20.00;82.70;;;;;;5058291;28;20445;-68
2021/05/18 13:00:35;;;;;;;3.70;3.57;;;19.90;83.80;;;;;;5046150;28;20765;-67
2021/05/18 13:03:14;;;;;;;4.00;3.90;;;20.00;83.70;;;;;;5049143;28;20456;-68
2021/05/18 13:05:54;;;;;;;4.87;4.57;;;19.60;83.10;;;;;;5070264;28;20849;-67
2021/05/18 13:08:34;;;;;;;3.93;3.83;;;19.40;85.10;;;;;;5057146;28;20442;-68
2021/05/18 13:13:37;;;;;;;4.00;3.90;;;19.40;85.20;;;;;;5057182;28;20535;-67
2021/05/18 13:16:19;;;;;;;3.90;3.70;;;19.50;84.40;;;;;;5056268;28;20482;-67
2021/05/18 13:19:03;;;;;;;4.47;4.27;;;19.30;87.30;;;;;;5057080;28;20410;-66
2021/05/18 13:21:38;;;;;;;5.23;4.93;;;19.20;89.00;;;;;;5057796;28;20487;-66
2021/05/18 13:26:37;;;;;;;5.30;4.80;;;19.10;90.20;;;;;;5057364;28;20450;-67
2021/05/18 13:29:16;;;;;;;4.27;4.07;;;19.20;89.10;;;;;;5052775;28;20423;-69
2021/05/18 13:32:01;;;;;;;4.60;4.30;;;19.20;87.70;;;;;;5051354;28;20451;-65
2021/05/18 13:34:42;;;;;;;4.03;3.83;;;19.30;86.20;;;;;;5053679;28;20444;-68
2021/05/18 13:37:09;;;;;;;4.77;4.57;;;19.30;85.90;;;;;;5051681;28;20507;-67
2021/05/18 13:39:37;;;;;;;4.30;4.00;;;19.50;84.70;;;;;;5058150;28;20652;-66
2021/05/18 13:42:05;;;;;;;4.10;4.00;;;19.60;85.20;;;;;;5063362;28;20478;-66
2021/05/18 13:44:33;;;;;;;4.60;4.40;;;19.50;83.70;;;;;;5055774;28;20420;-66
2021/05/18 13:47:04;;;;;;;4.40;4.10;;;19.40;85.30;;;;;;5053185;28;20517;-67
2021/05/18 13:49:31;;;;;;;4.20;4.10;;;19.20;83.80;;;;;;5059702;28;20440;-68
2021/05/18 13:52:12;;;;;;;4.50;4.20;;;18.90;83.90;;;;;;5057960;28;20418;-67
2021/05/18 13:54:39;;;;;;;5.00;4.70;;;18.90;86.00;;;;;;5059617;28;20418;-67
2021/05/18 13:57:07;;;;;;;4.33;4.23;;;18.90;86.50;;;;;;5061742;28;20541;-66
2021/05/18 13:59:34;;;;;;;3.60;3.50;;;19.00;86.20;;;;;;5093135;28;20415;-66
2021/05/18 14:02:03;;;;;;;4.10;3.90;;;19.00;88.30;;;;;;5060176;28;20482;-68
2021/05/18 14:04:31;;;;;;;4.20;4.00;;;18.80;88.60;;;;;;5057924;28;20667;-67
2021/05/18 14:10:01;;;;;;;3.93;3.80;;;18.90;88.20;;;;;;5063611;28;20406;-66
2021/05/18 14:12:28;;;;;;;3.97;3.77;;;19.10;86.20;;;;;;5064603;28;20448;-66
2021/05/18 14:14:55;;;;;;;3.77;3.60;;;19.20;84.10;;;;;;5063092;28;20418;-66
2021/05/18 14:17:22;;;;;;;4.00;3.80;;;19.40;83.60;;;;;;5092275;28;20419;-66
2021/05/18 14:19:53;;;;;;;4.20;3.90;;;19.60;83.60;;;;;;5054197;28;20465;-68
2021/05/18 14:22:21;;;;;;;4.00;3.80;;;19.60;81.80;;;;;;5062201;28;20454;-68
2021/05/18 14:25:04;;;;;;;3.70;3.60;;;19.30;81.90;;;;;;5061762;28;20419;-67
2021/05/18 14:27:33;;;;;;;3.60;3.50;;;18.70;82.30;;;;;;5058114;28;20699;-66
2021/05/18 14:30:00;;;;;;;4.10;4.00;;;18.30;82.50;;;;;;5062346;28;20815;-66
2021/05/18 14:32:28;;;;;;;3.57;3.43;;;18.20;84.30;;;;;;5062052;28;20415;-68
2021/05/18 14:34:55;;;;;;;3.60;3.50;;;18.30;83.50;;;;;;5062822;28;20776;-66
2021/05/18 14:37:23;;;;;;;3.83;3.63;;;18.20;83.80;;;;;;5054808;28;20555;-67
2021/05/18 14:45:12;;;;;;;3.60;3.50;;;18.80;82.40;;;;;;5062941;28;20440;-66
2021/05/18 14:48:06;;;;;;;7.60;4.33;;;19.00;81.90;;;;;;5058102;28;20525;-64
2021/05/18 14:56:08;;;;;;;3.83;3.73;;;18.70;83.60;;;;;;5057380;28;20433;-66
2021/05/18 14:58:35;;;;;;;3.93;3.73;;;18.50;85.20;;;;;;5055445;28;20806;-68
2021/05/18 15:01:04;;;;;;;3.53;3.33;;;18.60;86.10;;;;;;5054977;28;20478;-68
2021/05/18 15:03:34;;;;;;;4.87;4.37;;;18.50;86.40;;;;;;5058649;28;20509;-65
2021/05/18 15:06:02;;;;;;;3.50;3.40;;;18.40;87.00;;;;;;5047765;28;20419;-66
2021/05/18 15:08:29;;;;;;;4.10;3.80;;;18.20;88.90;;;;;;5053730;28;20424;-65
2021/05/18 15:11:04;;;;;;;3.87;3.60;;;18.20;90.20;;;;;;5054407;28;20528;-66
2021/05/18 15:13:33;;;;;;;4.10;3.90;;;18.00;89.50;;;;;;5058951;28;20749;-66
2021/05/18 15:16:01;;;;;;;4.20;4.00;;;18.00;90.10;;;;;;5056963;28;20447;-67
2021/05/18 15:18:31;;;;;;;4.37;4.17;;;17.90;90.70;;;;;;5059552;28;20424;-68
2021/05/18 15:20:58;;;;;;;4.33;3.63;;;17.90;91.10;;;;;;5054938;28;20422;-65
2021/05/18 15:23:28;;;;;;;3.90;3.70;;;17.70;91.50;;;;;;5055118;28;20510;-67
2021/05/18 15:25:56;;;;;;;3.30;3.10;;;17.40;92.40;;;;;;5055365;28;20448;-64
2021/05/18 15:28:24;;;;;;;3.13;2.93;;;17.30;93.30;;;;;;5053915;28;20438;-68
2021/05/18 15:30:51;;;;;;;2.73;2.63;;;17.00;93.80;;;;;;5055587;28;20468;-66
2021/05/18 15:33:20;;;;;;;2.80;2.70;;;16.90;94.20;;;;;;5060382;28;20696;-66
2021/05/18 15:35:47;;;;;;;2.90;2.60;;;16.90;94.60;;;;;;5055716;28;20444;-67
2021/05/18 15:38:14;;;;;;;2.93;2.73;;;17.00;94.90;;;;;;5058664;28;20430;-66
2021/05/18 15:40:41;;;;;;;4.40;2.70;;;17.00;94.80;;;;;;5087451;28;20534;-67
2021/05/18 15:43:08;;;;;;;2.80;2.60;;;17.00;94.20;;;;;;5057421;28;20470;-65
2021/05/18 15:45:36;;;;;;;3.37;2.80;;;17.20;94.20;;;;;;5059324;28;20630;-67
2021/05/18 15:48:05;;;;;;;2.90;2.77;;;17.30;93.60;;;;;;5054941;28;20414;-68
2021/05/18 15:50:34;;;;;;;3.70;3.50;;;17.30;93.60;;;;;;5083736;28;20760;-67
2021/05/18 15:53:01;;;;;;;3.20;3.00;;;17.60;93.40;;;;;;5054864;28;20509;-67
2021/05/18 15:55:28;;;;;;;2.90;2.80;;;17.70;92.70;;;;;;5057818;28;20806;-66
2021/05/18 15:57:56;;;;;;;3.20;3.00;;;17.60;92.80;;;;;;5088609;28;20669;-67
2021/05/18 16:00:23;;;;;;;2.90;2.80;;;17.60;92.90;;;;;;5056665;28;20418;-66
2021/05/18 16:02:50;;;;;;;2.77;2.67;;;17.70;93.10;;;;;;5057464;28;20447;-66
2021/05/18 16:05:21;;;;;;;3.47;2.87;;;17.90;92.70;;;;;;5055668;28;20433;-67
2021/05/18 16:08:04;;;;;;;2.60;2.50;;;18.10;92.30;;;;;;5056884;28;20427;-67
2021/05/18 16:10:50;;;;;;;3.43;2.87;;;18.20;92.00;;;;;;5054599;28;20734;-68
2021/05/18 16:13:25;;;;;;;3.40;3.13;;;18.30;91.50;;;;;;5053155;28;20448;-68
2021/05/18 16:16:07;;;;;;;3.57;3.37;;;18.20;91.60;;;;;;5053708;28;20444;-66
2021/05/18 16:18:36;;;;;;;3.20;2.90;;;18.20;91.50;;;;;;5056655;28;20495;-67
2021/05/18 16:21:04;;;;;;;3.47;3.20;;;18.20;91.80;;;;;;5050103;28;20418;-67
2021/05/18 16:23:33;;;;;;;2.80;2.70;;;18.20;91.90;;;;;;5047555;28;20731;-66
2021/05/18 16:26:00;;;;;;;3.40;3.30;;;18.10;91.80;;;;;;5051249;28;20869;-68
2021/05/18 16:28:30;;;;;;;6.30;3.20;;;18.10;92.00;;;;;;5052457;28;20448;-66
2021/05/18 16:30:58;;;;;;;3.40;3.10;;;18.10;92.20;;;;;;5051520;28;20563;-71
2021/05/18 16:33:27;;;;;;;2.80;2.70;;;18.10;92.20;;;;;;5049901;28;20430;-68
2021/05/18 16:35:55;;;;;;;3.27;3.07;;;18.00;92.10;;;;;;5052780;28;20443;-67
2021/05/18 16:38:22;;;;;;;3.57;3.37;;;17.90;92.30;;;;;;5053955;28;20422;-67
2021/05/18 16:40:54;;;;;;;3.93;3.63;;;17.80;92.50;;;;;;5047191;28;20811;-66
2021/05/18 16:43:22;;;;;;;3.10;2.90;;;17.70;92.70;;;;;;5052920;28;20509;-69
2021/05/18 16:45:50;;;;;;;3.47;3.13;;;17.80;92.70;;;;;;5051678;28;20455;-67
2021/05/18 16:48:18;;;;;;;3.30;3.10;;;18.00;92.30;;;;;;5050892;28;20430;-68
2021/05/18 16:50:47;;;;;;;3.43;3.23;;;18.40;91.90;;;;;;5053283;28;20415;-67
2021/05/18 16:53:14;;;;;;;3.00;2.80;;;18.30;91.60;;;;;;5051625;28;20446;-68
2021/05/18 16:55:42;;;;;;;4.13;3.93;;;18.20;91.60;;;;;;5052194;28;20474;-69
2021/05/18 16:58:09;;;;;;;3.70;3.50;;;18.30;91.40;;;;;;5053715;28;20505;-67
2021/05/18 17:00:36;;;;;;;3.30;3.10;;;18.10;90.90;;;;;;5054654;28;21785;-66
2021/05/18 17:03:03;;;;;;;3.43;3.20;;;17.90;91.50;;;;;;5051760;28;20529;-66
2021/05/18 17:05:31;;;;;;;4.20;3.67;;;17.80;91.50;;;;;;5053090;28;20416;-68
2021/05/18 17:08:05;;;;;;;3.57;3.43;;;17.60;91.60;;;;;;5053493;28;20827;-66
2021/05/18 17:10:35;;;;;;;3.93;3.63;;;17.50;91.60;;;;;;5052460;28;20416;-67
2021/05/18 17:13:03;;;;;;;3.57;3.37;;;17.50;91.70;;;;;;5053937;28;20447;-66
2021/05/18 17:15:30;;;;;;;3.80;3.50;;;17.50;92.00;;;;;;5054438;28;20447;-67
2021/05/18 17:17:58;;;;;;;3.00;2.90;;;17.50;92.00;;;;;;5054007;28;21080;-66
2021/05/18 17:20:28;;;;;;;3.20;3.10;;;17.30;92.00;;;;;;5053686;28;20482;-67
2021/05/18 17:22:57;;;;;;;2.80;2.70;;;17.20;92.40;;;;;;5051975;28;20463;-65
2021/05/18 17:25:25;;;;;;;3.30;3.10;;;17.40;92.10;;;;;;5052339;28;20441;-67
2021/05/18 17:27:52;;;;;;;3.13;3.03;;;17.40;91.10;;;;;;5054930;28;20418;-65
2021/05/18 17:30:24;;;;;;;3.30;3.10;;;17.40;91.30;;;;;;5053252;28;20466;-66
2021/05/18 17:32:52;;;;;;;2.70;2.50;;;17.10;93.40;;;;;;5052959;28;20605;-66
2021/05/18 17:35:21;;;;;;;2.30;2.10;;;16.60;95.50;;;;;;5052478;28;20453;-65
2021/05/18 17:37:49;;;;;;;3.20;2.87;;;16.30;96.70;;;;;;5052793;28;20603;-68
2021/05/18 17:40:16;;;;;;;2.53;2.33;;;16.10;97.40;;;;;;5053879;28;20474;-65
2021/05/18 17:42:44;;;;;;;3.23;3.03;;;15.90;97.60;;;;;;5052516;28;20841;-67
2021/05/18 17:45:13;;;;;;;2.50;1.90;;;15.70;97.80;;;;;;5052005;28;20506;-66
2021/05/18 17:47:41;;;;;;;1.95;1.85;;;15.50;97.90;;;;;;5054155;28;20431;-66
2021/05/18 17:50:12;;;;;;;2.03;1.80;;;15.30;98.20;;;;;;5047556;28;20414;-66
2021/05/18 17:52:40;;;;;;;2.47;2.28;;;15.10;98.70;;;;;;5048975;28;20442;-67
2021/05/18 17:55:10;;;;;;;2.50;2.33;;;14.90;99.00;;;;;;5052254;28;20398;-65
2021/05/18 17:57:38;;;;;;;2.10;2.00;;;14.80;99.70;;;;;;5043089;28;20202;-66
2021/05/18 18:00:07;;;;;;;1.90;1.80;;;14.50;99.90;;;;;;5053111;28;20502;-64
2021/05/18 18:02:34;;;;;;;1.67;1.58;;;14.10;99.90;;;;;;5052837;28;20199;-65
2021/05/18 18:05:02;;;;;;;2.08;1.83;;;13.90;99.90;;;;;;5051323;28;20233;-65
2021/05/18 18:07:29;;;;;;;1.60;1.50;;;13.70;99.90;;;;;;5052289;28;20204;-65
2021/05/18 18:09:58;;;;;;;2.95;2.05;;;13.50;99.90;;;;;;5054037;28;20406;-65
2021/05/18 18:12:26;;;;;;;2.35;2.20;;;13.50;99.90;;;;;;5051592;28;20203;-66
2021/05/18 18:14:53;;;;;;;2.70;2.40;;;13.40;99.90;;;;;;5054243;28;20212;-65
2021/05/18 18:17:22;;;;;;;2.60;2.40;;;13.30;99.90;;;;;;5051201;28;20486;-65
2021/05/18 18:19:49;;;;;;;5.35;2.53;;;13.30;99.90;;;;;;5051424;28;20462;-68